sensor_id;sensor_type;location;lat;lon;timestamp;P1;durP1;ratioP1;P2;durP2;ratioP2
6259;SDS011;3163;51.516;4.000;2024-03-22T00:00:54;9.33;;;6.73;;
6259;SDS011;3163;51.516;4.000;2024-03-22T00:03:20;8.60;;;5.57;;
6259;SDS011;3163;51.516;4.000;2024-03-22T00:05:46;9.80;;;5.97;;
6259;SDS011;3163;51.516;4.000;2024-03-22T00:08:12;9.03;;;6.27;;
6259;SDS011;3163;51.516;4.000;2024-03-22T00:10:38;8.30;;;5.70;;
6259;SDS011;3163;51.516;4.000;2024-03-22T00:13:05;10.37;;;6.10;;
6259;SDS011;3163;51.516;4.000;2024-03-22T00:15:31;10.23;;;6.40;;
6259;SDS011;3163;51.516;4.000;2024-03-22T00:17:57;8.23;;;5.67;;
6259;SDS011;3163;51.516;4.000;2024-03-22T00:20:23;9.33;;;5.97;;
6259;SDS011;3163;51.516;4.000;2024-03-22T00:22:49;8.57;;;5.97;;
6259;SDS011;3163;51.516;4.000;2024-03-22T00:25:15;9.50;;;5.17;;
6259;SDS011;3163;51.516;4.000;2024-03-22T00:27:41;8.97;;;5.80;;
6259;SDS011;3163;51.516;4.000;2024-03-22T00:30:07;8.63;;;5.23;;
6259;SDS011;3163;51.516;4.000;2024-03-22T00:32:33;8.60;;;6.00;;
6259;SDS011;3163;51.516;4.000;2024-03-22T00:34:59;9.03;;;6.23;;
6259;SDS011;3163;51.516;4.000;2024-03-22T00:37:25;9.93;;;5.80;;
6259;SDS011;3163;51.516;4.000;2024-03-22T00:39:51;9.10;;;5.63;;
6259;SDS011;3163;51.516;4.000;2024-03-22T00:42:17;7.83;;;5.37;;
6259;SDS011;3163;51.516;4.000;2024-03-22T00:44:43;7.70;;;5.07;;
6259;SDS011;3163;51.516;4.000;2024-03-22T00:47:09;9.40;;;7.03;;
6259;SDS011;3163;51.516;4.000;2024-03-22T00:49:35;7.63;;;4.77;;
6259;SDS011;3163;51.516;4.000;2024-03-22T00:52:01;8.23;;;4.73;;
6259;SDS011;3163;51.516;4.000;2024-03-22T00:54:27;8.93;;;5.63;;
6259;SDS011;3163;51.516;4.000;2024-03-22T00:56:53;7.57;;;5.47;;
6259;SDS011;3163;51.516;4.000;2024-03-22T00:59:19;8.67;;;5.50;;
6259;SDS011;3163;51.516;4.000;2024-03-22T01:01:45;7.07;;;5.07;;
6259;SDS011;3163;51.516;4.000;2024-03-22T01:04:11;9.30;;;5.60;;
6259;SDS011;3163;51.516;4.000;2024-03-22T01:06:37;13.80;;;7.60;;
6259;SDS011;3163;51.516;4.000;2024-03-22T01:09:05;8.17;;;4.93;;
6259;SDS011;3163;51.516;4.000;2024-03-22T01:11:31;9.40;;;5.73;;
6259;SDS011;3163;51.516;4.000;2024-03-22T01:13:57;4.43;;;3.17;;
6259;SDS011;3163;51.516;4.000;2024-03-22T01:16:23;6.40;;;4.63;;
6259;SDS011;3163;51.516;4.000;2024-03-22T01:18:49;9.20;;;5.37;;
6259;SDS011;3163;51.516;4.000;2024-03-22T01:21:15;6.60;;;4.33;;
6259;SDS011;3163;51.516;4.000;2024-03-22T01:23:41;7.50;;;4.73;;
6259;SDS011;3163;51.516;4.000;2024-03-22T01:26:07;11.23;;;6.80;;
6259;SDS011;3163;51.516;4.000;2024-03-22T01:28:33;8.40;;;5.30;;
6259;SDS011;3163;51.516;4.000;2024-03-22T01:30:59;8.57;;;4.77;;
6259;SDS011;3163;51.516;4.000;2024-03-22T01:33:25;10.67;;;4.87;;
6259;SDS011;3163;51.516;4.000;2024-03-22T01:35:51;7.77;;;4.67;;
6259;SDS011;3163;51.516;4.000;2024-03-22T01:38:17;8.37;;;5.40;;
6259;SDS011;3163;51.516;4.000;2024-03-22T01:40:43;7.37;;;5.07;;
6259;SDS011;3163;51.516;4.000;2024-03-22T01:43:09;7.47;;;5.10;;
6259;SDS011;3163;51.516;4.000;2024-03-22T01:45:35;8.33;;;4.27;;
6259;SDS011;3163;51.516;4.000;2024-03-22T01:48:03;12.67;;;6.53;;
6259;SDS011;3163;51.516;4.000;2024-03-22T01:50:29;9.93;;;5.50;;
6259;SDS011;3163;51.516;4.000;2024-03-22T01:52:55;10.63;;;5.67;;
6259;SDS011;3163;51.516;4.000;2024-03-22T01:55:22;9.93;;;5.40;;
6259;SDS011;3163;51.516;4.000;2024-03-22T01:57:49;11.93;;;5.90;;
6259;SDS011;3163;51.516;4.000;2024-03-22T02:00:15;10.83;;;5.83;;
6259;SDS011;3163;51.516;4.000;2024-03-22T02:02:41;9.77;;;6.17;;
6259;SDS011;3163;51.516;4.000;2024-03-22T02:05:14;10.40;;;5.63;;
6259;SDS011;3163;51.516;4.000;2024-03-22T02:07:41;8.50;;;4.50;;
6259;SDS011;3163;51.516;4.000;2024-03-22T02:10:07;8.47;;;5.17;;
6259;SDS011;3163;51.516;4.000;2024-03-22T02:12:36;12.33;;;6.40;;
6259;SDS011;3163;51.516;4.000;2024-03-22T02:15:02;10.10;;;6.63;;
6259;SDS011;3163;51.516;4.000;2024-03-22T02:17:28;12.60;;;6.53;;
6259;SDS011;3163;51.516;4.000;2024-03-22T02:19:54;12.63;;;6.83;;
6259;SDS011;3163;51.516;4.000;2024-03-22T02:22:20;7.17;;;5.30;;
6259;SDS011;3163;51.516;4.000;2024-03-22T02:24:46;10.77;;;5.40;;
6259;SDS011;3163;51.516;4.000;2024-03-22T02:27:12;10.73;;;5.57;;
6259;SDS011;3163;51.516;4.000;2024-03-22T02:29:38;10.40;;;5.70;;
6259;SDS011;3163;51.516;4.000;2024-03-22T02:32:05;11.23;;;6.13;;
6259;SDS011;3163;51.516;4.000;2024-03-22T02:34:31;10.10;;;6.00;;
6259;SDS011;3163;51.516;4.000;2024-03-22T02:36:57;9.50;;;5.50;;
6259;SDS011;3163;51.516;4.000;2024-03-22T02:39:23;8.20;;;5.50;;
6259;SDS011;3163;51.516;4.000;2024-03-22T02:41:50;8.40;;;6.20;;
6259;SDS011;3163;51.516;4.000;2024-03-22T02:44:16;11.13;;;6.47;;
6259;SDS011;3163;51.516;4.000;2024-03-22T02:46:42;9.57;;;4.47;;
6259;SDS011;3163;51.516;4.000;2024-03-22T02:49:08;8.63;;;5.93;;
6259;SDS011;3163;51.516;4.000;2024-03-22T02:51:34;9.20;;;5.90;;
6259;SDS011;3163;51.516;4.000;2024-03-22T02:54:00;11.10;;;6.00;;
6259;SDS011;3163;51.516;4.000;2024-03-22T02:56:27;12.63;;;6.53;;
6259;SDS011;3163;51.516;4.000;2024-03-22T02:58:53;12.60;;;8.27;;
6259;SDS011;3163;51.516;4.000;2024-03-22T03:01:19;9.77;;;6.33;;
6259;SDS011;3163;51.516;4.000;2024-03-22T03:03:45;8.07;;;4.97;;
6259;SDS011;3163;51.516;4.000;2024-03-22T03:06:11;12.50;;;6.67;;
6259;SDS011;3163;51.516;4.000;2024-03-22T03:08:41;8.70;;;5.13;;
6259;SDS011;3163;51.516;4.000;2024-03-22T03:11:07;6.43;;;5.00;;
6259;SDS011;3163;51.516;4.000;2024-03-22T03:13:33;8.90;;;5.70;;
6259;SDS011;3163;51.516;4.000;2024-03-22T03:16:00;9.53;;;5.73;;
6259;SDS011;3163;51.516;4.000;2024-03-22T03:18:25;8.30;;;5.40;;
6259;SDS011;3163;51.516;4.000;2024-03-22T03:20:52;9.20;;;5.53;;
6259;SDS011;3163;51.516;4.000;2024-03-22T03:23:18;8.20;;;5.83;;
6259;SDS011;3163;51.516;4.000;2024-03-22T03:25:44;10.03;;;5.97;;
6259;SDS011;3163;51.516;4.000;2024-03-22T03:28:11;10.13;;;5.93;;
6259;SDS011;3163;51.516;4.000;2024-03-22T03:30:38;7.83;;;4.47;;
6259;SDS011;3163;51.516;4.000;2024-03-22T03:33:04;5.70;;;4.17;;
6259;SDS011;3163;51.516;4.000;2024-03-22T03:35:30;9.27;;;5.57;;
6259;SDS011;3163;51.516;4.000;2024-03-22T03:37:56;9.90;;;5.50;;
6259;SDS011;3163;51.516;4.000;2024-03-22T03:40:22;8.13;;;5.47;;
6259;SDS011;3163;51.516;4.000;2024-03-22T03:42:50;8.97;;;6.03;;
6259;SDS011;3163;51.516;4.000;2024-03-22T03:45:16;6.33;;;5.13;;
6259;SDS011;3163;51.516;4.000;2024-03-22T03:47:42;6.70;;;4.17;;
6259;SDS011;3163;51.516;4.000;2024-03-22T03:50:08;6.47;;;4.83;;
6259;SDS011;3163;51.516;4.000;2024-03-22T03:52:34;6.73;;;4.67;;
6259;SDS011;3163;51.516;4.000;2024-03-22T03:55:00;8.20;;;4.43;;
6259;SDS011;3163;51.516;4.000;2024-03-22T03:57:26;9.13;;;5.27;;
6259;SDS011;3163;51.516;4.000;2024-03-22T03:59:52;7.47;;;4.97;;
6259;SDS011;3163;51.516;4.000;2024-03-22T04:02:18;7.90;;;5.07;;
6259;SDS011;3163;51.516;4.000;2024-03-22T04:04:44;8.95;;;5.90;;
6259;SDS011;3163;51.516;4.000;2024-03-22T04:07:10;6.07;;;4.33;;
6259;SDS011;3163;51.516;4.000;2024-03-22T04:09:36;7.57;;;4.23;;
6259;SDS011;3163;51.516;4.000;2024-03-22T04:12:02;6.90;;;4.73;;
6259;SDS011;3163;51.516;4.000;2024-03-22T04:14:28;7.13;;;4.70;;
6259;SDS011;3163;51.516;4.000;2024-03-22T04:16:55;6.70;;;3.83;;
6259;SDS011;3163;51.516;4.000;2024-03-22T04:19:21;8.60;;;4.50;;
6259;SDS011;3163;51.516;4.000;2024-03-22T04:21:47;3.77;;;2.87;;
6259;SDS011;3163;51.516;4.000;2024-03-22T04:24:13;5.43;;;3.97;;
6259;SDS011;3163;51.516;4.000;2024-03-22T04:26:39;3.57;;;2.53;;
6259;SDS011;3163;51.516;4.000;2024-03-22T04:29:05;5.87;;;4.30;;
6259;SDS011;3163;51.516;4.000;2024-03-22T04:31:32;5.40;;;3.10;;
6259;SDS011;3163;51.516;4.000;2024-03-22T04:33:58;7.00;;;4.37;;
6259;SDS011;3163;51.516;4.000;2024-03-22T04:36:24;5.57;;;3.37;;
6259;SDS011;3163;51.516;4.000;2024-03-22T04:38:50;5.23;;;3.03;;
6259;SDS011;3163;51.516;4.000;2024-03-22T04:41:16;4.60;;;4.07;;
6259;SDS011;3163;51.516;4.000;2024-03-22T04:43:42;5.67;;;3.27;;
6259;SDS011;3163;51.516;4.000;2024-03-22T04:46:08;3.33;;;2.87;;
6259;SDS011;3163;51.516;4.000;2024-03-22T04:48:34;11.20;;;5.30;;
6259;SDS011;3163;51.516;4.000;2024-03-22T04:51:00;3.63;;;2.60;;
6259;SDS011;3163;51.516;4.000;2024-03-22T04:53:26;5.03;;;3.17;;
6259;SDS011;3163;51.516;4.000;2024-03-22T04:55:52;3.90;;;3.43;;
6259;SDS011;3163;51.516;4.000;2024-03-22T04:58:19;7.60;;;4.40;;
6259;SDS011;3163;51.516;4.000;2024-03-22T05:00:46;6.13;;;3.90;;
6259;SDS011;3163;51.516;4.000;2024-03-22T05:03:12;7.93;;;4.50;;
6259;SDS011;3163;51.516;4.000;2024-03-22T05:05:39;5.53;;;4.07;;
6259;SDS011;3163;51.516;4.000;2024-03-22T05:08:05;6.27;;;3.50;;
6259;SDS011;3163;51.516;4.000;2024-03-22T05:10:32;7.43;;;3.83;;
6259;SDS011;3163;51.516;4.000;2024-03-22T05:12:58;5.53;;;3.93;;
6259;SDS011;3163;51.516;4.000;2024-03-22T05:15:24;4.27;;;2.97;;
6259;SDS011;3163;51.516;4.000;2024-03-22T05:17:50;7.43;;;4.30;;
6259;SDS011;3163;51.516;4.000;2024-03-22T05:20:17;7.10;;;3.93;;
6259;SDS011;3163;51.516;4.000;2024-03-22T05:22:43;5.73;;;2.80;;
6259;SDS011;3163;51.516;4.000;2024-03-22T05:25:09;4.83;;;4.00;;
6259;SDS011;3163;51.516;4.000;2024-03-22T05:27:35;8.63;;;4.37;;
6259;SDS011;3163;51.516;4.000;2024-03-22T05:30:02;8.10;;;5.27;;
6259;SDS011;3163;51.516;4.000;2024-03-22T05:32:29;7.87;;;4.83;;
6259;SDS011;3163;51.516;4.000;2024-03-22T05:34:55;5.80;;;3.80;;
6259;SDS011;3163;51.516;4.000;2024-03-22T05:37:21;6.80;;;4.40;;
6259;SDS011;3163;51.516;4.000;2024-03-22T05:39:48;7.93;;;4.97;;
6259;SDS011;3163;51.516;4.000;2024-03-22T05:42:14;5.33;;;3.73;;
6259;SDS011;3163;51.516;4.000;2024-03-22T05:44:40;7.20;;;4.20;;
6259;SDS011;3163;51.516;4.000;2024-03-22T05:47:06;8.83;;;3.73;;
6259;SDS011;3163;51.516;4.000;2024-03-22T05:49:32;6.73;;;4.70;;
6259;SDS011;3163;51.516;4.000;2024-03-22T05:51:58;8.80;;;5.07;;
6259;SDS011;3163;51.516;4.000;2024-03-22T05:54:24;6.73;;;4.17;;
6259;SDS011;3163;51.516;4.000;2024-03-22T05:56:50;5.87;;;3.83;;
6259;SDS011;3163;51.516;4.000;2024-03-22T05:59:16;7.90;;;4.27;;
6259;SDS011;3163;51.516;4.000;2024-03-22T06:01:42;11.03;;;4.43;;
6259;SDS011;3163;51.516;4.000;2024-03-22T06:04:08;9.60;;;4.27;;
6259;SDS011;3163;51.516;4.000;2024-03-22T06:06:35;6.73;;;3.73;;
6259;SDS011;3163;51.516;4.000;2024-03-22T06:09:03;7.53;;;4.03;;
6259;SDS011;3163;51.516;4.000;2024-03-22T06:11:33;5.87;;;2.83;;
6259;SDS011;3163;51.516;4.000;2024-03-22T06:14:00;6.73;;;3.97;;
6259;SDS011;3163;51.516;4.000;2024-03-22T06:16:26;8.17;;;5.83;;
6259;SDS011;3163;51.516;4.000;2024-03-22T06:18:52;6.80;;;4.23;;
6259;SDS011;3163;51.516;4.000;2024-03-22T06:21:18;7.47;;;4.43;;
6259;SDS011;3163;51.516;4.000;2024-03-22T06:23:50;8.10;;;4.33;;
6259;SDS011;3163;51.516;4.000;2024-03-22T06:26:16;5.10;;;3.87;;
6259;SDS011;3163;51.516;4.000;2024-03-22T06:28:42;9.03;;;4.87;;
6259;SDS011;3163;51.516;4.000;2024-03-22T06:31:08;6.73;;;4.17;;
6259;SDS011;3163;51.516;4.000;2024-03-22T06:33:34;7.70;;;4.87;;
6259;SDS011;3163;51.516;4.000;2024-03-22T06:36:00;11.63;;;5.37;;
6259;SDS011;3163;51.516;4.000;2024-03-22T06:38:29;8.40;;;6.03;;
6259;SDS011;3163;51.516;4.000;2024-03-22T06:40:55;8.60;;;4.37;;
6259;SDS011;3163;51.516;4.000;2024-03-22T06:43:21;7.93;;;5.20;;
6259;SDS011;3163;51.516;4.000;2024-03-22T06:45:47;6.77;;;3.97;;
6259;SDS011;3163;51.516;4.000;2024-03-22T06:48:13;9.30;;;4.70;;
6259;SDS011;3163;51.516;4.000;2024-03-22T06:50:42;8.13;;;5.20;;
6259;SDS011;3163;51.516;4.000;2024-03-22T06:53:08;8.20;;;5.00;;
6259;SDS011;3163;51.516;4.000;2024-03-22T06:55:37;8.20;;;4.47;;
6259;SDS011;3163;51.516;4.000;2024-03-22T06:58:03;6.13;;;3.53;;
6259;SDS011;3163;51.516;4.000;2024-03-22T07:00:29;5.80;;;3.53;;
6259;SDS011;3163;51.516;4.000;2024-03-22T07:02:55;6.77;;;4.43;;
6259;SDS011;3163;51.516;4.000;2024-03-22T07:05:22;5.70;;;4.47;;
6259;SDS011;3163;51.516;4.000;2024-03-22T07:07:48;4.60;;;3.93;;
6259;SDS011;3163;51.516;4.000;2024-03-22T07:10:20;7.63;;;4.07;;
6259;SDS011;3163;51.516;4.000;2024-03-22T07:12:48;8.90;;;5.53;;
6259;SDS011;3163;51.516;4.000;2024-03-22T07:15:14;9.00;;;5.77;;
6259;SDS011;3163;51.516;4.000;2024-03-22T07:17:40;7.97;;;3.73;;
6259;SDS011;3163;51.516;4.000;2024-03-22T07:20:06;5.47;;;3.70;;
6259;SDS011;3163;51.516;4.000;2024-03-22T07:22:32;5.40;;;4.57;;
6259;SDS011;3163;51.516;4.000;2024-03-22T07:24:58;4.43;;;4.00;;
6259;SDS011;3163;51.516;4.000;2024-03-22T07:27:24;7.33;;;4.93;;
6259;SDS011;3163;51.516;4.000;2024-03-22T07:29:54;3.60;;;2.97;;
6259;SDS011;3163;51.516;4.000;2024-03-22T07:32:20;9.18;;;6.63;;
6259;SDS011;3163;51.516;4.000;2024-03-22T07:34:46;12.67;;;4.87;;
6259;SDS011;3163;51.516;4.000;2024-03-22T07:37:12;7.47;;;4.27;;
6259;SDS011;3163;51.516;4.000;2024-03-22T07:39:38;7.20;;;4.87;;
6259;SDS011;3163;51.516;4.000;2024-03-22T07:42:04;7.50;;;4.17;;
6259;SDS011;3163;51.516;4.000;2024-03-22T07:44:30;3.60;;;2.93;;
6259;SDS011;3163;51.516;4.000;2024-03-22T07:46:56;5.70;;;3.97;;
6259;SDS011;3163;51.516;4.000;2024-03-22T07:49:22;8.73;;;3.80;;
6259;SDS011;3163;51.516;4.000;2024-03-22T07:51:48;5.50;;;3.97;;
6259;SDS011;3163;51.516;4.000;2024-03-22T07:54:15;6.43;;;4.00;;
6259;SDS011;3163;51.516;4.000;2024-03-22T07:56:41;7.93;;;4.63;;
6259;SDS011;3163;51.516;4.000;2024-03-22T07:59:07;5.07;;;3.73;;
6259;SDS011;3163;51.516;4.000;2024-03-22T08:01:34;5.47;;;3.63;;
6259;SDS011;3163;51.516;4.000;2024-03-22T08:04:00;6.63;;;4.30;;
6259;SDS011;3163;51.516;4.000;2024-03-22T08:06:26;5.27;;;3.70;;
6259;SDS011;3163;51.516;4.000;2024-03-22T08:08:52;4.97;;;3.23;;
6259;SDS011;3163;51.516;4.000;2024-03-22T08:11:18;3.40;;;3.07;;
6259;SDS011;3163;51.516;4.000;2024-03-22T08:13:44;5.43;;;3.70;;
6259;SDS011;3163;51.516;4.000;2024-03-22T08:16:10;6.17;;;3.63;;
6259;SDS011;3163;51.516;4.000;2024-03-22T08:18:36;6.80;;;3.43;;
6259;SDS011;3163;51.516;4.000;2024-03-22T08:21:02;2.83;;;2.57;;
6259;SDS011;3163;51.516;4.000;2024-03-22T08:23:29;5.77;;;3.77;;
6259;SDS011;3163;51.516;4.000;2024-03-22T08:25:55;5.30;;;3.03;;
6259;SDS011;3163;51.516;4.000;2024-03-22T08:28:22;7.27;;;3.43;;
6259;SDS011;3163;51.516;4.000;2024-03-22T08:30:48;5.10;;;3.20;;
6259;SDS011;3163;51.516;4.000;2024-03-22T08:33:14;6.07;;;3.57;;
6259;SDS011;3163;51.516;4.000;2024-03-22T08:35:40;5.17;;;3.13;;
6259;SDS011;3163;51.516;4.000;2024-03-22T08:38:06;5.93;;;3.63;;
6259;SDS011;3163;51.516;4.000;2024-03-22T08:40:38;5.73;;;3.40;;
6259;SDS011;3163;51.516;4.000;2024-03-22T08:43:07;4.63;;;2.93;;
6259;SDS011;3163;51.516;4.000;2024-03-22T08:45:33;7.17;;;3.17;;
6259;SDS011;3163;51.516;4.000;2024-03-22T08:47:59;4.97;;;3.53;;
6259;SDS011;3163;51.516;4.000;2024-03-22T08:50:25;3.37;;;2.63;;
6259;SDS011;3163;51.516;4.000;2024-03-22T08:52:52;4.07;;;2.93;;
6259;SDS011;3163;51.516;4.000;2024-03-22T08:55:18;3.37;;;2.27;;
6259;SDS011;3163;51.516;4.000;2024-03-22T08:57:44;5.87;;;2.63;;
6259;SDS011;3163;51.516;4.000;2024-03-22T09:00:10;3.57;;;2.07;;
6259;SDS011;3163;51.516;4.000;2024-03-22T09:02:36;6.77;;;3.17;;
6259;SDS011;3163;51.516;4.000;2024-03-22T09:05:03;6.10;;;2.40;;
6259;SDS011;3163;51.516;4.000;2024-03-22T09:07:29;5.50;;;2.20;;
6259;SDS011;3163;51.516;4.000;2024-03-22T09:09:55;2.30;;;2.10;;
6259;SDS011;3163;51.516;4.000;2024-03-22T09:12:21;6.47;;;2.60;;
6259;SDS011;3163;51.516;4.000;2024-03-22T09:14:47;5.07;;;2.40;;
6259;SDS011;3163;51.516;4.000;2024-03-22T09:17:13;3.70;;;2.57;;
6259;SDS011;3163;51.516;4.000;2024-03-22T09:19:39;2.37;;;1.97;;
6259;SDS011;3163;51.516;4.000;2024-03-22T09:22:06;5.17;;;2.67;;
6259;SDS011;3163;51.516;4.000;2024-03-22T09:24:32;5.20;;;1.93;;
6259;SDS011;3163;51.516;4.000;2024-03-22T09:26:58;5.33;;;2.17;;
6259;SDS011;3163;51.516;4.000;2024-03-22T09:29:24;2.80;;;2.00;;
6259;SDS011;3163;51.516;4.000;2024-03-22T09:31:50;2.93;;;1.67;;
6259;SDS011;3163;51.516;4.000;2024-03-22T09:34:16;3.27;;;1.80;;
6259;SDS011;3163;51.516;4.000;2024-03-22T09:36:42;3.87;;;2.30;;
6259;SDS011;3163;51.516;4.000;2024-03-22T09:39:08;3.90;;;1.83;;
6259;SDS011;3163;51.516;4.000;2024-03-22T09:41:34;1.80;;;1.70;;
6259;SDS011;3163;51.516;4.000;2024-03-22T09:44:05;1.50;;;1.40;;
6259;SDS011;3163;51.516;4.000;2024-03-22T09:46:31;2.17;;;1.40;;
6259;SDS011;3163;51.516;4.000;2024-03-22T09:48:58;5.57;;;1.70;;
6259;SDS011;3163;51.516;4.000;2024-03-22T09:51:24;2.97;;;1.43;;
6259;SDS011;3163;51.516;4.000;2024-03-22T09:53:51;2.23;;;1.60;;
6259;SDS011;3163;51.516;4.000;2024-03-22T09:56:17;3.50;;;1.80;;
6259;SDS011;3163;51.516;4.000;2024-03-22T09:58:46;2.83;;;1.80;;
6259;SDS011;3163;51.516;4.000;2024-03-22T10:01:12;3.13;;;1.83;;
6259;SDS011;3163;51.516;4.000;2024-03-22T10:03:38;2.50;;;1.50;;
6259;SDS011;3163;51.516;4.000;2024-03-22T10:06:04;4.37;;;1.63;;
6259;SDS011;3163;51.516;4.000;2024-03-22T10:08:31;2.90;;;1.80;;
6259;SDS011;3163;51.516;4.000;2024-03-22T10:10:57;4.77;;;1.40;;
6259;SDS011;3163;51.516;4.000;2024-03-22T10:13:23;1.20;;;1.10;;
6259;SDS011;3163;51.516;4.000;2024-03-22T10:15:49;3.60;;;1.80;;
6259;SDS011;3163;51.516;4.000;2024-03-22T10:18:15;1.27;;;1.20;;
6259;SDS011;3163;51.516;4.000;2024-03-22T10:20:44;6.47;;;1.90;;
6259;SDS011;3163;51.516;4.000;2024-03-22T10:23:10;2.23;;;1.30;;
6259;SDS011;3163;51.516;4.000;2024-03-22T10:25:36;2.60;;;1.40;;
6259;SDS011;3163;51.516;4.000;2024-03-22T10:28:02;3.10;;;1.80;;
6259;SDS011;3163;51.516;4.000;2024-03-22T10:30:29;2.23;;;1.50;;
6259;SDS011;3163;51.516;4.000;2024-03-22T10:32:56;4.40;;;1.97;;
6259;SDS011;3163;51.516;4.000;2024-03-22T10:35:22;5.13;;;1.83;;
6259;SDS011;3163;51.516;4.000;2024-03-22T10:37:48;4.73;;;1.60;;
6259;SDS011;3163;51.516;4.000;2024-03-22T10:40:14;2.83;;;1.67;;
6259;SDS011;3163;51.516;4.000;2024-03-22T10:42:41;1.30;;;1.20;;
6259;SDS011;3163;51.516;4.000;2024-03-22T10:45:08;2.17;;;1.60;;
6259;SDS011;3163;51.516;4.000;2024-03-22T10:47:36;6.60;;;1.83;;
6259;SDS011;3163;51.516;4.000;2024-03-22T10:50:09;2.97;;;1.90;;
6259;SDS011;3163;51.516;4.000;2024-03-22T10:52:39;2.10;;;1.30;;
6259;SDS011;3163;51.516;4.000;2024-03-22T10:55:07;3.10;;;1.43;;
6259;SDS011;3163;51.516;4.000;2024-03-22T10:57:34;3.03;;;1.50;;
6259;SDS011;3163;51.516;4.000;2024-03-22T11:00:11;3.03;;;1.80;;
6259;SDS011;3163;51.516;4.000;2024-03-22T11:02:37;4.57;;;1.92;;
6259;SDS011;3163;51.516;4.000;2024-03-22T11:05:04;2.73;;;2.00;;
6259;SDS011;3163;51.516;4.000;2024-03-22T11:07:32;3.37;;;1.70;;
6259;SDS011;3163;51.516;4.000;2024-03-22T11:10:00;1.90;;;1.60;;
6259;SDS011;3163;51.516;4.000;2024-03-22T11:12:31;3.83;;;1.40;;
6259;SDS011;3163;51.516;4.000;2024-03-22T11:14:58;2.43;;;1.40;;
6259;SDS011;3163;51.516;4.000;2024-03-22T11:17:25;1.60;;;1.23;;
6259;SDS011;3163;51.516;4.000;2024-03-22T11:19:51;6.30;;;1.50;;
6259;SDS011;3163;51.516;4.000;2024-03-22T11:22:17;1.53;;;1.30;;
6259;SDS011;3163;51.516;4.000;2024-03-22T11:24:43;2.93;;;1.30;;
6259;SDS011;3163;51.516;4.000;2024-03-22T11:27:10;2.20;;;1.73;;
6259;SDS011;3163;51.516;4.000;2024-03-22T11:29:39;2.47;;;1.90;;
6259;SDS011;3163;51.516;4.000;2024-03-22T11:32:07;2.20;;;1.50;;
6259;SDS011;3163;51.516;4.000;2024-03-22T11:34:36;2.90;;;1.40;;
6259;SDS011;3163;51.516;4.000;2024-03-22T11:37:03;4.00;;;1.70;;
6259;SDS011;3163;51.516;4.000;2024-03-22T11:39:29;2.23;;;1.60;;
6259;SDS011;3163;51.516;4.000;2024-03-22T11:41:55;1.47;;;1.37;;
6259;SDS011;3163;51.516;4.000;2024-03-22T11:44:22;1.63;;;1.20;;
6259;SDS011;3163;51.516;4.000;2024-03-22T11:46:50;2.03;;;1.33;;
6259;SDS011;3163;51.516;4.000;2024-03-22T11:49:17;3.07;;;1.30;;
6259;SDS011;3163;51.516;4.000;2024-03-22T11:51:44;3.97;;;1.37;;
6259;SDS011;3163;51.516;4.000;2024-03-22T11:54:10;1.50;;;1.40;;
6259;SDS011;3163;51.516;4.000;2024-03-22T11:56:36;3.73;;;1.60;;
6259;SDS011;3163;51.516;4.000;2024-03-22T11:59:03;2.33;;;1.20;;
6259;SDS011;3163;51.516;4.000;2024-03-22T12:01:29;3.27;;;1.37;;
6259;SDS011;3163;51.516;4.000;2024-03-22T12:03:55;4.20;;;1.10;;
6259;SDS011;3163;51.516;4.000;2024-03-22T12:06:21;1.50;;;1.10;;
6259;SDS011;3163;51.516;4.000;2024-03-22T12:08:48;1.93;;;1.43;;
6259;SDS011;3163;51.516;4.000;2024-03-22T12:11:14;1.67;;;1.20;;
6259;SDS011;3163;51.516;4.000;2024-03-22T12:13:40;1.77;;;1.50;;
6259;SDS011;3163;51.516;4.000;2024-03-22T12:16:06;2.17;;;1.47;;
6259;SDS011;3163;51.516;4.000;2024-03-22T12:18:35;1.40;;;1.30;;
6259;SDS011;3163;51.516;4.000;2024-03-22T12:21:01;1.80;;;1.40;;
6259;SDS011;3163;51.516;4.000;2024-03-22T12:23:27;1.47;;;1.37;;
6259;SDS011;3163;51.516;4.000;2024-03-22T12:25:53;1.20;;;1.10;;
6259;SDS011;3163;51.516;4.000;2024-03-22T12:28:20;1.10;;;1.00;;
6259;SDS011;3163;51.516;4.000;2024-03-22T12:30:46;1.77;;;1.17;;
6259;SDS011;3163;51.516;4.000;2024-03-22T12:33:13;1.10;;;1.03;;
6259;SDS011;3163;51.516;4.000;2024-03-22T12:35:39;3.90;;;1.17;;
6259;SDS011;3163;51.516;4.000;2024-03-22T12:38:06;1.00;;;1.00;;
6259;SDS011;3163;51.516;4.000;2024-03-22T12:40:35;1.13;;;0.90;;
6259;SDS011;3163;51.516;4.000;2024-03-22T12:43:01;0.80;;;0.77;;
6259;SDS011;3163;51.516;4.000;2024-03-22T12:45:28;0.90;;;0.90;;
6259;SDS011;3163;51.516;4.000;2024-03-22T12:47:55;1.63;;;1.20;;
6259;SDS011;3163;51.516;4.000;2024-03-22T12:50:21;0.80;;;0.80;;
6259;SDS011;3163;51.516;4.000;2024-03-22T12:52:47;3.47;;;1.07;;
6259;SDS011;3163;51.516;4.000;2024-03-22T12:55:13;0.73;;;0.73;;
6259;SDS011;3163;51.516;4.000;2024-03-22T12:57:39;0.97;;;0.93;;
6259;SDS011;3163;51.516;4.000;2024-03-22T13:00:06;2.73;;;1.20;;
6259;SDS011;3163;51.516;4.000;2024-03-22T13:02:37;1.60;;;1.27;;
6259;SDS011;3163;51.516;4.000;2024-03-22T13:05:04;1.17;;;0.87;;
6259;SDS011;3163;51.516;4.000;2024-03-22T13:07:30;1.63;;;1.07;;
6259;SDS011;3163;51.516;4.000;2024-03-22T13:09:56;1.80;;;1.00;;
6259;SDS011;3163;51.516;4.000;2024-03-22T13:12:22;1.30;;;1.20;;
6259;SDS011;3163;51.516;4.000;2024-03-22T13:14:48;2.87;;;1.13;;
6259;SDS011;3163;51.516;4.000;2024-03-22T13:17:14;1.03;;;1.03;;
6259;SDS011;3163;51.516;4.000;2024-03-22T13:19:40;0.90;;;0.83;;
6259;SDS011;3163;51.516;4.000;2024-03-22T13:22:06;1.20;;;0.70;;
6259;SDS011;3163;51.516;4.000;2024-03-22T13:24:32;0.67;;;0.67;;
6259;SDS011;3163;51.516;4.000;2024-03-22T13:26:59;0.83;;;0.83;;
6259;SDS011;3163;51.516;4.000;2024-03-22T13:29:25;0.87;;;0.87;;
6259;SDS011;3163;51.516;4.000;2024-03-22T13:31:51;1.17;;;1.10;;
6259;SDS011;3163;51.516;4.000;2024-03-22T13:34:17;0.67;;;0.67;;
6259;SDS011;3163;51.516;4.000;2024-03-22T13:36:43;1.60;;;0.90;;
6259;SDS011;3163;51.516;4.000;2024-03-22T13:39:09;0.93;;;0.93;;
6259;SDS011;3163;51.516;4.000;2024-03-22T13:41:36;1.07;;;0.80;;
6259;SDS011;3163;51.516;4.000;2024-03-22T13:44:02;0.80;;;0.80;;
6259;SDS011;3163;51.516;4.000;2024-03-22T13:46:28;0.97;;;0.97;;
6259;SDS011;3163;51.516;4.000;2024-03-22T13:48:54;0.90;;;0.90;;
6259;SDS011;3163;51.516;4.000;2024-03-22T13:51:21;0.63;;;0.63;;
6259;SDS011;3163;51.516;4.000;2024-03-22T13:53:47;1.97;;;0.80;;
6259;SDS011;3163;51.516;4.000;2024-03-22T13:56:13;0.70;;;0.70;;
6259;SDS011;3163;51.516;4.000;2024-03-22T13:58:39;0.67;;;0.67;;
6259;SDS011;3163;51.516;4.000;2024-03-22T14:01:05;0.90;;;0.90;;
6259;SDS011;3163;51.516;4.000;2024-03-22T14:03:31;1.07;;;0.97;;
6259;SDS011;3163;51.516;4.000;2024-03-22T14:05:57;1.17;;;0.93;;
6259;SDS011;3163;51.516;4.000;2024-03-22T14:08:23;1.70;;;0.90;;
6259;SDS011;3163;51.516;4.000;2024-03-22T14:10:49;1.30;;;1.20;;
6259;SDS011;3163;51.516;4.000;2024-03-22T14:13:15;0.87;;;0.87;;
6259;SDS011;3163;51.516;4.000;2024-03-22T14:15:41;5.23;;;1.77;;
6259;SDS011;3163;51.516;4.000;2024-03-22T14:18:07;1.33;;;1.23;;
6259;SDS011;3163;51.516;4.000;2024-03-22T14:20:34;1.17;;;1.10;;
6259;SDS011;3163;51.516;4.000;2024-03-22T14:23:00;1.63;;;1.03;;
6259;SDS011;3163;51.516;4.000;2024-03-22T14:25:27;1.83;;;1.23;;
6259;SDS011;3163;51.516;4.000;2024-03-22T14:27:53;0.90;;;0.70;;
6259;SDS011;3163;51.516;4.000;2024-03-22T14:30:20;2.57;;;1.13;;
6259;SDS011;3163;51.516;4.000;2024-03-22T14:32:47;2.33;;;1.00;;
6259;SDS011;3163;51.516;4.000;2024-03-22T14:35:13;1.23;;;1.10;;
6259;SDS011;3163;51.516;4.000;2024-03-22T14:37:40;2.70;;;1.60;;
6259;SDS011;3163;51.516;4.000;2024-03-22T14:40:06;3.40;;;1.30;;
6259;SDS011;3163;51.516;4.000;2024-03-22T14:42:35;1.37;;;1.27;;
6259;SDS011;3163;51.516;4.000;2024-03-22T14:45:01;2.00;;;1.20;;
6259;SDS011;3163;51.516;4.000;2024-03-22T14:47:28;2.15;;;1.42;;
6259;SDS011;3163;51.516;4.000;2024-03-22T14:49:54;2.23;;;1.00;;
6259;SDS011;3163;51.516;4.000;2024-03-22T14:52:20;2.50;;;1.30;;
6259;SDS011;3163;51.516;4.000;2024-03-22T14:54:46;1.33;;;1.20;;
6259;SDS011;3163;51.516;4.000;2024-03-22T14:57:12;4.57;;;1.37;;
6259;SDS011;3163;51.516;4.000;2024-03-22T14:59:38;1.33;;;1.13;;
6259;SDS011;3163;51.516;4.000;2024-03-22T15:02:05;3.23;;;2.60;;
6259;SDS011;3163;51.516;4.000;2024-03-22T15:04:31;1.07;;;0.97;;
6259;SDS011;3163;51.516;4.000;2024-03-22T15:06:57;2.27;;;1.47;;
6259;SDS011;3163;51.516;4.000;2024-03-22T15:09:23;1.30;;;1.20;;